Ocoee 2 Observed Data For Previous 48 Hours

Note: Discharge information is a combination of river flows at the Ocoee No. 2 dam and the volume of water diverted by the Ocoee Flume, which bypasses the middle section of the river where recreational rafting is held.

Caption
Day and Hour Reservoir Elevation (behind dam)* Tailwater Elevation (below dam)* Average Hourly Discharge*
9/21/2017 2 AM EDT 842.35 1,201
9/21/2017 3 AM EDT 841.50 187
9/21/2017 4 AM EDT 840.78 106
9/21/2017 5 AM EDT 840.77 104
9/21/2017 6 AM EDT 840.78 94
9/21/2017 7 AM EDT 840.78 91
9/21/2017 8 AM EDT 840.78 89
9/21/2017 9 AM EDT 840.77 87
9/21/2017 10 AM EDT 840.77 87
9/21/2017 11 AM EDT 840.76 87
9/21/2017 12 PM EDT 840.76 85
9/21/2017 1 PM EDT 840.75 85
9/21/2017 2 PM EDT 841.20 258
9/21/2017 3 PM EDT 841.70 1,082
9/21/2017 4 PM EDT 841.93 1,161
9/21/2017 5 PM EDT 841.94 1,182
9/21/2017 6 PM EDT 842.45 1,194
9/21/2017 7 PM EDT 842.61 1,189
9/21/2017 8 PM EDT 842.49 1,188
9/21/2017 9 PM EDT 842.38 1,187
9/21/2017 10 PM EDT 842.34 1,222
9/21/2017 11 PM EDT 842.30 1,211
9/22/2017 12 AM EDT 842.28 1,222
9/22/2017 1 AM EDT 842.26 1,223
9/22/2017 2 AM EDT 842.35 1,196
9/22/2017 3 AM EDT 841.50 178
9/22/2017 4 AM EDT 840.78 101
9/22/2017 5 AM EDT 840.77 99
9/22/2017 6 AM EDT 840.78 94
9/22/2017 7 AM EDT 840.78 89
9/22/2017 8 AM EDT 840.78 87

Elevations are in feet above sea level. Discharges are in cubic feet per second and are reported at the end of the hour.